sensor_id;sensor_type;location;lat;lon;timestamp;temperature;humidity
24176;DHT22;12324;48.146;11.502;2023-04-28T00:01:36;9.10;99.90
24176;DHT22;12324;48.146;11.502;2023-04-28T00:04:03;9.10;99.90
24176;DHT22;12324;48.146;11.502;2023-04-28T00:06:30;9.10;99.90
24176;DHT22;12324;48.146;11.502;2023-04-28T00:08:57;9.10;99.90
24176;DHT22;12324;48.146;11.502;2023-04-28T00:11:24;9.10;99.90
24176;DHT22;12324;48.146;11.502;2023-04-28T00:13:51;9.10;99.90
24176;DHT22;12324;48.146;11.502;2023-04-28T00:16:17;9.20;99.90
24176;DHT22;12324;48.146;11.502;2023-04-28T00:18:44;9.20;99.90
24176;DHT22;12324;48.146;11.502;2023-04-28T00:21:11;9.20;99.90
24176;DHT22;12324;48.146;11.502;2023-04-28T00:23:37;9.20;99.90
24176;DHT22;12324;48.146;11.502;2023-04-28T00:26:04;9.20;99.90
24176;DHT22;12324;48.146;11.502;2023-04-28T00:28:31;9.10;99.90
24176;DHT22;12324;48.146;11.502;2023-04-28T00:31:01;9.10;99.90
24176;DHT22;12324;48.146;11.502;2023-04-28T00:33:28;9.10;99.90
24176;DHT22;12324;48.146;11.502;2023-04-28T00:36:03;9.20;99.90
24176;DHT22;12324;48.146;11.502;2023-04-28T00:38:30;9.10;99.90
24176;DHT22;12324;48.146;11.502;2023-04-28T00:40:57;9.10;99.90
24176;DHT22;12324;48.146;11.502;2023-04-28T00:43:23;9.10;99.90
24176;DHT22;12324;48.146;11.502;2023-04-28T00:45:51;9.10;99.90
24176;DHT22;12324;48.146;11.502;2023-04-28T00:48:18;9.10;99.90
24176;DHT22;12324;48.146;11.502;2023-04-28T00:50:46;9.10;99.90
24176;DHT22;12324;48.146;11.502;2023-04-28T00:53:13;9.00;99.90
24176;DHT22;12324;48.146;11.502;2023-04-28T00:55:40;9.00;99.90
24176;DHT22;12324;48.146;11.502;2023-04-28T00:58:07;9.00;99.90
24176;DHT22;12324;48.146;11.502;2023-04-28T01:00:34;9.00;99.90
24176;DHT22;12324;48.146;11.502;2023-04-28T01:03:00;9.00;99.90
24176;DHT22;12324;48.146;11.502;2023-04-28T01:05:28;9.10;99.90
24176;DHT22;12324;48.146;11.502;2023-04-28T01:07:55;9.10;99.90
24176;DHT22;12324;48.146;11.502;2023-04-28T01:10:22;9.00;99.90
24176;DHT22;12324;48.146;11.502;2023-04-28T01:12:49;9.00;99.90
24176;DHT22;12324;48.146;11.502;2023-04-28T01:15:17;9.10;99.90
24176;DHT22;12324;48.146;11.502;2023-04-28T01:17:44;9.10;99.90
24176;DHT22;12324;48.146;11.502;2023-04-28T01:20:12;9.10;99.90
24176;DHT22;12324;48.146;11.502;2023-04-28T01:22:40;9.00;99.90
24176;DHT22;12324;48.146;11.502;2023-04-28T01:25:07;9.00;99.90
24176;DHT22;12324;48.146;11.502;2023-04-28T01:27:34;9.00;99.90
24176;DHT22;12324;48.146;11.502;2023-04-28T01:30:00;9.00;99.90
24176;DHT22;12324;48.146;11.502;2023-04-28T01:32:27;9.00;99.90
24176;DHT22;12324;48.146;11.502;2023-04-28T01:34:54;9.00;99.90
24176;DHT22;12324;48.146;11.502;2023-04-28T01:37:21;9.00;99.90
24176;DHT22;12324;48.146;11.502;2023-04-28T01:39:47;9.00;99.90
24176;DHT22;12324;48.146;11.502;2023-04-28T01:42:14;9.10;99.90
24176;DHT22;12324;48.146;11.502;2023-04-28T01:44:41;9.10;99.90
24176;DHT22;12324;48.146;11.502;2023-04-28T01:47:07;9.10;99.90
24176;DHT22;12324;48.146;11.502;2023-04-28T01:49:34;9.10;99.90
24176;DHT22;12324;48.146;11.502;2023-04-28T01:52:01;9.10;99.90
24176;DHT22;12324;48.146;11.502;2023-04-28T01:54:28;9.10;99.90
24176;DHT22;12324;48.146;11.502;2023-04-28T01:56:54;9.20;99.90
24176;DHT22;12324;48.146;11.502;2023-04-28T01:59:21;9.20;99.90
24176;DHT22;12324;48.146;11.502;2023-04-28T02:01:50;9.20;99.90
24176;DHT22;12324;48.146;11.502;2023-04-28T02:04:17;9.20;99.90
24176;DHT22;12324;48.146;11.502;2023-04-28T02:06:44;9.20;99.90
24176;DHT22;12324;48.146;11.502;2023-04-28T02:09:11;9.20;99.90
24176;DHT22;12324;48.146;11.502;2023-04-28T02:11:38;9.20;99.90
24176;DHT22;12324;48.146;11.502;2023-04-28T02:14:04;9.20;99.90
24176;DHT22;12324;48.146;11.502;2023-04-28T02:16:32;9.20;99.90
24176;DHT22;12324;48.146;11.502;2023-04-28T02:18:59;9.20;99.90
24176;DHT22;12324;48.146;11.502;2023-04-28T02:21:26;9.20;99.90
24176;DHT22;12324;48.146;11.502;2023-04-28T02:23:53;9.20;99.90
24176;DHT22;12324;48.146;11.502;2023-04-28T02:26:20;9.20;99.90
24176;DHT22;12324;48.146;11.502;2023-04-28T02:28:46;9.20;99.90
24176;DHT22;12324;48.146;11.502;2023-04-28T02:31:14;9.30;99.90
24176;DHT22;12324;48.146;11.502;2023-04-28T02:33:41;9.30;99.90
24176;DHT22;12324;48.146;11.502;2023-04-28T02:36:09;9.30;99.90
24176;DHT22;12324;48.146;11.502;2023-04-28T02:38:36;9.30;99.90
24176;DHT22;12324;48.146;11.502;2023-04-28T02:41:04;9.30;99.90
24176;DHT22;12324;48.146;11.502;2023-04-28T02:43:32;9.30;99.90
24176;DHT22;12324;48.146;11.502;2023-04-28T02:45:59;9.30;99.90
24176;DHT22;12324;48.146;11.502;2023-04-28T02:48:26;9.30;99.90
24176;DHT22;12324;48.146;11.502;2023-04-28T02:50:53;9.20;99.90
24176;DHT22;12324;48.146;11.502;2023-04-28T02:53:21;9.10;99.90
24176;DHT22;12324;48.146;11.502;2023-04-28T02:55:48;9.00;99.90
24176;DHT22;12324;48.146;11.502;2023-04-28T02:58:15;9.00;99.90
24176;DHT22;12324;48.146;11.502;2023-04-28T03:00:43;9.00;99.90
24176;DHT22;12324;48.146;11.502;2023-04-28T03:03:10;9.00;99.90
24176;DHT22;12324;48.146;11.502;2023-04-28T03:05:37;9.00;99.90
24176;DHT22;12324;48.146;11.502;2023-04-28T03:08:04;9.00;99.90
24176;DHT22;12324;48.146;11.502;2023-04-28T03:10:31;9.00;99.90
24176;DHT22;12324;48.146;11.502;2023-04-28T03:12:58;9.00;99.90
24176;DHT22;12324;48.146;11.502;2023-04-28T03:15:25;9.00;99.90
24176;DHT22;12324;48.146;11.502;2023-04-28T03:17:52;9.00;99.90
24176;DHT22;12324;48.146;11.502;2023-04-28T03:20:19;9.00;99.90
24176;DHT22;12324;48.146;11.502;2023-04-28T03:22:45;9.00;99.90
24176;DHT22;12324;48.146;11.502;2023-04-28T03:25:12;9.00;99.90
24176;DHT22;12324;48.146;11.502;2023-04-28T03:27:38;9.10;99.90
24176;DHT22;12324;48.146;11.502;2023-04-28T03:30:06;9.10;99.90
24176;DHT22;12324;48.146;11.502;2023-04-28T03:32:32;9.10;99.90
24176;DHT22;12324;48.146;11.502;2023-04-28T03:34:59;9.10;99.90
24176;DHT22;12324;48.146;11.502;2023-04-28T03:37:26;9.20;99.90
24176;DHT22;12324;48.146;11.502;2023-04-28T03:39:53;9.20;99.90
24176;DHT22;12324;48.146;11.502;2023-04-28T03:42:19;9.10;99.90
24176;DHT22;12324;48.146;11.502;2023-04-28T03:44:46;9.10;99.90
24176;DHT22;12324;48.146;11.502;2023-04-28T03:47:12;9.10;99.90
24176;DHT22;12324;48.146;11.502;2023-04-28T03:49:39;9.10;99.90
24176;DHT22;12324;48.146;11.502;2023-04-28T03:52:06;9.10;99.90
24176;DHT22;12324;48.146;11.502;2023-04-28T03:54:33;9.20;99.90
24176;DHT22;12324;48.146;11.502;2023-04-28T03:56:59;9.20;99.90
24176;DHT22;12324;48.146;11.502;2023-04-28T03:59:27;9.20;99.90
24176;DHT22;12324;48.146;11.502;2023-04-28T04:01:53;9.20;99.90
24176;DHT22;12324;48.146;11.502;2023-04-28T04:04:20;9.20;99.90
24176;DHT22;12324;48.146;11.502;2023-04-28T04:06:47;9.20;99.90
24176;DHT22;12324;48.146;11.502;2023-04-28T04:09:14;9.20;99.90
24176;DHT22;12324;48.146;11.502;2023-04-28T04:11:41;9.20;99.90
24176;DHT22;12324;48.146;11.502;2023-04-28T04:14:08;9.20;99.90
24176;DHT22;12324;48.146;11.502;2023-04-28T04:16:35;9.20;99.90
24176;DHT22;12324;48.146;11.502;2023-04-28T04:19:02;9.10;99.90
24176;DHT22;12324;48.146;11.502;2023-04-28T04:21:29;9.10;99.90
24176;DHT22;12324;48.146;11.502;2023-04-28T04:23:57;9.10;99.90
24176;DHT22;12324;48.146;11.502;2023-04-28T04:26:24;9.10;99.90
24176;DHT22;12324;48.146;11.502;2023-04-28T04:28:50;9.00;99.90
24176;DHT22;12324;48.146;11.502;2023-04-28T04:31:17;9.00;99.90
24176;DHT22;12324;48.146;11.502;2023-04-28T04:33:48;9.10;99.90
24176;DHT22;12324;48.146;11.502;2023-04-28T04:36:14;9.10;99.90
24176;DHT22;12324;48.146;11.502;2023-04-28T04:38:41;9.10;99.90
24176;DHT22;12324;48.146;11.502;2023-04-28T04:41:08;9.10;99.90
24176;DHT22;12324;48.146;11.502;2023-04-28T04:43:34;9.10;99.90
24176;DHT22;12324;48.146;11.502;2023-04-28T04:46:01;9.20;99.90
24176;DHT22;12324;48.146;11.502;2023-04-28T04:48:29;9.30;99.90
24176;DHT22;12324;48.146;11.502;2023-04-28T04:50:56;9.30;99.90
24176;DHT22;12324;48.146;11.502;2023-04-28T04:53:23;9.20;99.90
24176;DHT22;12324;48.146;11.502;2023-04-28T04:55:49;9.30;99.90
24176;DHT22;12324;48.146;11.502;2023-04-28T04:58:16;9.40;99.90
24176;DHT22;12324;48.146;11.502;2023-04-28T05:00:43;9.40;99.90
24176;DHT22;12324;48.146;11.502;2023-04-28T05:03:10;9.40;99.90
24176;DHT22;12324;48.146;11.502;2023-04-28T05:05:37;9.40;99.90
24176;DHT22;12324;48.146;11.502;2023-04-28T05:08:04;9.50;99.90
24176;DHT22;12324;48.146;11.502;2023-04-28T05:10:31;9.50;99.90
24176;DHT22;12324;48.146;11.502;2023-04-28T05:12:58;9.50;99.90
24176;DHT22;12324;48.146;11.502;2023-04-28T05:15:25;9.50;99.90
24176;DHT22;12324;48.146;11.502;2023-04-28T05:17:51;9.50;99.90
24176;DHT22;12324;48.146;11.502;2023-04-28T05:20:18;9.50;99.90
24176;DHT22;12324;48.146;11.502;2023-04-28T05:22:45;9.60;99.90
24176;DHT22;12324;48.146;11.502;2023-04-28T05:25:12;9.50;99.90
24176;DHT22;12324;48.146;11.502;2023-04-28T05:27:38;9.50;99.90
24176;DHT22;12324;48.146;11.502;2023-04-28T05:30:07;9.60;99.90
24176;DHT22;12324;48.146;11.502;2023-04-28T05:32:34;9.70;99.90
24176;DHT22;12324;48.146;11.502;2023-04-28T05:35:01;9.70;99.90
24176;DHT22;12324;48.146;11.502;2023-04-28T05:37:28;9.70;99.90
24176;DHT22;12324;48.146;11.502;2023-04-28T05:39:55;9.70;99.90
24176;DHT22;12324;48.146;11.502;2023-04-28T05:42:21;9.70;99.90
24176;DHT22;12324;48.146;11.502;2023-04-28T05:44:48;9.70;99.90
24176;DHT22;12324;48.146;11.502;2023-04-28T05:47:15;9.80;99.90
24176;DHT22;12324;48.146;11.502;2023-04-28T05:49:42;9.80;99.90
24176;DHT22;12324;48.146;11.502;2023-04-28T05:52:08;9.80;99.90
24176;DHT22;12324;48.146;11.502;2023-04-28T05:54:35;9.80;99.90
24176;DHT22;12324;48.146;11.502;2023-04-28T05:57:02;9.80;99.90
24176;DHT22;12324;48.146;11.502;2023-04-28T05:59:29;9.70;99.90
24176;DHT22;12324;48.146;11.502;2023-04-28T06:01:56;9.80;99.90
24176;DHT22;12324;48.146;11.502;2023-04-28T06:04:23;9.70;99.90
24176;DHT22;12324;48.146;11.502;2023-04-28T06:06:52;9.70;99.90
24176;DHT22;12324;48.146;11.502;2023-04-28T06:09:18;9.70;99.90
24176;DHT22;12324;48.146;11.502;2023-04-28T06:19:07;9.70;99.90
24176;DHT22;12324;48.146;11.502;2023-04-28T06:21:33;10.40;99.90
24176;DHT22;12324;48.146;11.502;2023-04-28T06:24:00;10.50;99.90
24176;DHT22;12324;48.146;11.502;2023-04-28T06:26:27;10.50;99.90
24176;DHT22;12324;48.146;11.502;2023-04-28T06:28:54;10.50;99.90
24176;DHT22;12324;48.146;11.502;2023-04-28T06:31:21;10.50;99.90
24176;DHT22;12324;48.146;11.502;2023-04-28T06:33:48;10.50;99.90
24176;DHT22;12324;48.146;11.502;2023-04-28T06:36:14;10.50;99.90
24176;DHT22;12324;48.146;11.502;2023-04-28T06:38:44;10.50;99.90
24176;DHT22;12324;48.146;11.502;2023-04-28T06:48:33;10.60;99.90
24176;DHT22;12324;48.146;11.502;2023-04-28T06:53:27;11.10;99.90
24176;DHT22;12324;48.146;11.502;2023-04-28T06:55:53;11.30;99.90
24176;DHT22;12324;48.146;11.502;2023-04-28T06:58:20;11.60;99.90
24176;DHT22;12324;48.146;11.502;2023-04-28T07:00:47;11.80;99.90
24176;DHT22;12324;48.146;11.502;2023-04-28T07:03:13;11.90;99.90
24176;DHT22;12324;48.146;11.502;2023-04-28T07:05:40;12.00;99.90
24176;DHT22;12324;48.146;11.502;2023-04-28T07:08:07;12.10;99.90
24176;DHT22;12324;48.146;11.502;2023-04-28T07:10:34;12.10;99.90
24176;DHT22;12324;48.146;11.502;2023-04-28T07:13:00;12.10;99.90
24176;DHT22;12324;48.146;11.502;2023-04-28T07:15:27;12.10;99.90
24176;DHT22;12324;48.146;11.502;2023-04-28T07:17:54;12.10;99.90
24176;DHT22;12324;48.146;11.502;2023-04-28T07:20:21;12.00;99.90
24176;DHT22;12324;48.146;11.502;2023-04-28T07:22:48;12.00;99.90
24176;DHT22;12324;48.146;11.502;2023-04-28T07:25:14;12.20;99.90
24176;DHT22;12324;48.146;11.502;2023-04-28T09:39:27;12.10;99.90
24176;DHT22;12324;48.146;11.502;2023-04-28T09:41:54;11.30;99.90
24176;DHT22;12324;48.146;11.502;2023-04-28T09:44:21;11.30;99.90
24176;DHT22;12324;48.146;11.502;2023-04-28T09:46:49;11.30;99.90
24176;DHT22;12324;48.146;11.502;2023-04-28T09:49:15;11.40;99.90
24176;DHT22;12324;48.146;11.502;2023-04-28T09:51:42;11.30;99.90
24176;DHT22;12324;48.146;11.502;2023-04-28T09:54:10;11.30;99.90
24176;DHT22;12324;48.146;11.502;2023-04-28T09:56:38;11.30;99.90
24176;DHT22;12324;48.146;11.502;2023-04-28T09:59:06;11.20;99.90
24176;DHT22;12324;48.146;11.502;2023-04-28T10:01:37;11.20;99.90
24176;DHT22;12324;48.146;11.502;2023-04-28T10:04:07;11.20;99.90
24176;DHT22;12324;48.146;11.502;2023-04-28T10:06:34;11.30;99.90
24176;DHT22;12324;48.146;11.502;2023-04-28T10:09:04;11.30;99.90
24176;DHT22;12324;48.146;11.502;2023-04-28T10:11:32;11.30;99.90
24176;DHT22;12324;48.146;11.502;2023-04-28T10:13:59;11.30;99.90
24176;DHT22;12324;48.146;11.502;2023-04-28T10:16:29;11.30;99.90
24176;DHT22;12324;48.146;11.502;2023-04-28T10:18:57;11.20;99.90
24176;DHT22;12324;48.146;11.502;2023-04-28T10:21:24;11.20;99.90
24176;DHT22;12324;48.146;11.502;2023-04-28T10:24:43;11.20;99.90
24176;DHT22;12324;48.146;11.502;2023-04-28T10:27:22;11.30;99.90
24176;DHT22;12324;48.146;11.502;2023-04-28T10:30:16;11.20;99.90
24176;DHT22;12324;48.146;11.502;2023-04-28T10:32:46;11.20;99.90
24176;DHT22;12324;48.146;11.502;2023-04-28T10:35:43;11.20;99.90
24176;DHT22;12324;48.146;11.502;2023-04-28T10:38:18;11.20;99.90
24176;DHT22;12324;48.146;11.502;2023-04-28T10:40:51;11.20;99.90
24176;DHT22;12324;48.146;11.502;2023-04-28T10:43:36;11.20;99.90
24176;DHT22;12324;48.146;11.502;2023-04-28T10:46:06;11.10;99.90
24176;DHT22;12324;48.146;11.502;2023-04-28T10:51:20;11.10;99.90
24176;DHT22;12324;48.146;11.502;2023-04-28T10:58:46;11.20;99.90
24176;DHT22;12324;48.146;11.502;2023-04-28T11:06:24;11.30;99.90
24176;DHT22;12324;48.146;11.502;2023-04-28T11:08:56;11.40;99.90
24176;DHT22;12324;48.146;11.502;2023-04-28T11:11:25;11.40;99.90
24176;DHT22;12324;48.146;11.502;2023-04-28T11:13:54;11.40;99.90
24176;DHT22;12324;48.146;11.502;2023-04-28T11:16:23;11.30;99.90
24176;DHT22;12324;48.146;11.502;2023-04-28T11:18:56;11.20;99.90
24176;DHT22;12324;48.146;11.502;2023-04-28T11:21:25;11.20;99.90
24176;DHT22;12324;48.146;11.502;2023-04-28T11:23:54;11.20;99.90
24176;DHT22;12324;48.146;11.502;2023-04-28T11:26:21;11.10;99.90
24176;DHT22;12324;48.146;11.502;2023-04-28T11:28:53;11.10;99.90
24176;DHT22;12324;48.146;11.502;2023-04-28T11:31:21;11.10;99.90
24176;DHT22;12324;48.146;11.502;2023-04-28T11:36:36;11.20;99.90
24176;DHT22;12324;48.146;11.502;2023-04-28T11:39:04;11.30;99.90
24176;DHT22;12324;48.146;11.502;2023-04-28T11:41:35;11.30;99.90
24176;DHT22;12324;48.146;11.502;2023-04-28T11:44:16;11.40;99.90
24176;DHT22;12324;48.146;11.502;2023-04-28T11:46:48;11.40;99.90
24176;DHT22;12324;48.146;11.502;2023-04-28T11:49:27;11.50;99.90
24176;DHT22;12324;48.146;11.502;2023-04-28T11:51:55;11.60;99.90
24176;DHT22;12324;48.146;11.502;2023-04-28T11:54:24;11.60;99.90
24176;DHT22;12324;48.146;11.502;2023-04-28T11:56:53;11.60;99.90
24176;DHT22;12324;48.146;11.502;2023-04-28T11:59:28;11.60;99.90
24176;DHT22;12324;48.146;11.502;2023-04-28T12:02:05;11.60;99.90
24176;DHT22;12324;48.146;11.502;2023-04-28T12:04:37;11.60;99.90
24176;DHT22;12324;48.146;11.502;2023-04-28T12:07:08;11.70;99.90
24176;DHT22;12324;48.146;11.502;2023-04-28T12:09:37;11.60;99.90
24176;DHT22;12324;48.146;11.502;2023-04-28T12:12:05;11.60;99.90
24176;DHT22;12324;48.146;11.502;2023-04-28T12:14:58;11.70;99.90
24176;DHT22;12324;48.146;11.502;2023-04-28T12:17:35;11.70;99.90
24176;DHT22;12324;48.146;11.502;2023-04-28T12:20:07;11.80;99.90
24176;DHT22;12324;48.146;11.502;2023-04-28T12:22:48;11.80;99.90
24176;DHT22;12324;48.146;11.502;2023-04-28T12:25:16;11.90;99.90
24176;DHT22;12324;48.146;11.502;2023-04-28T12:28:03;12.10;99.90
24176;DHT22;12324;48.146;11.502;2023-04-28T12:30:35;12.30;99.90
24176;DHT22;12324;48.146;11.502;2023-04-28T12:33:24;12.30;99.90
24176;DHT22;12324;48.146;11.502;2023-04-28T12:35:51;12.40;99.90
24176;DHT22;12324;48.146;11.502;2023-04-28T12:38:20;12.50;99.90
24176;DHT22;12324;48.146;11.502;2023-04-28T12:40:47;12.50;99.90
24176;DHT22;12324;48.146;11.502;2023-04-28T12:43:13;12.60;99.90
24176;DHT22;12324;48.146;11.502;2023-04-28T12:45:40;12.70;99.90
24176;DHT22;12324;48.146;11.502;2023-04-28T12:48:07;12.70;99.90
24176;DHT22;12324;48.146;11.502;2023-04-28T12:50:34;12.70;99.90
24176;DHT22;12324;48.146;11.502;2023-04-28T12:53:00;12.80;99.90
24176;DHT22;12324;48.146;11.502;2023-04-28T12:55:28;12.90;99.90
24176;DHT22;12324;48.146;11.502;2023-04-28T12:57:55;12.90;99.90
24176;DHT22;12324;48.146;11.502;2023-04-28T13:00:21;12.90;99.90
24176;DHT22;12324;48.146;11.502;2023-04-28T13:39:49;13.00;99.90
24176;DHT22;12324;48.146;11.502;2023-04-28T15:45:34;13.80;99.90
24176;DHT22;12324;48.146;11.502;2023-04-28T15:48:02;13.60;99.90
24176;DHT22;12324;48.146;11.502;2023-04-28T15:50:31;13.50;99.90
24176;DHT22;12324;48.146;11.502;2023-04-28T15:52:58;13.50;99.90
24176;DHT22;12324;48.146;11.502;2023-04-28T15:55:25;13.50;99.90
24176;DHT22;12324;48.146;11.502;2023-04-28T15:57:52;13.50;99.90
24176;DHT22;12324;48.146;11.502;2023-04-28T16:00:19;13.40;99.90
24176;DHT22;12324;48.146;11.502;2023-04-28T16:02:46;13.50;99.90
24176;DHT22;12324;48.146;11.502;2023-04-28T16:05:13;13.50;99.90
24176;DHT22;12324;48.146;11.502;2023-04-28T16:07:40;13.50;99.90
24176;DHT22;12324;48.146;11.502;2023-04-28T16:10:12;13.50;99.90
24176;DHT22;12324;48.146;11.502;2023-04-28T16:12:40;13.50;99.90
24176;DHT22;12324;48.146;11.502;2023-04-28T16:15:09;13.30;99.90
24176;DHT22;12324;48.146;11.502;2023-04-28T16:17:37;13.30;99.90
24176;DHT22;12324;48.146;11.502;2023-04-28T16:20:06;13.30;99.90
24176;DHT22;12324;48.146;11.502;2023-04-28T16:22:34;13.20;99.90
24176;DHT22;12324;48.146;11.502;2023-04-28T16:25:01;13.20;99.90
24176;DHT22;12324;48.146;11.502;2023-04-28T16:27:29;13.20;99.90
24176;DHT22;12324;48.146;11.502;2023-04-28T16:29:57;13.20;99.90
24176;DHT22;12324;48.146;11.502;2023-04-28T16:32:24;13.10;99.90
24176;DHT22;12324;48.146;11.502;2023-04-28T16:34:50;13.20;99.90
24176;DHT22;12324;48.146;11.502;2023-04-28T16:37:18;13.20;99.90
24176;DHT22;12324;48.146;11.502;2023-04-28T16:39:44;13.20;99.90
24176;DHT22;12324;48.146;11.502;2023-04-28T16:42:12;13.20;99.90
24176;DHT22;12324;48.146;11.502;2023-04-28T16:44:38;13.20;99.90
24176;DHT22;12324;48.146;11.502;2023-04-28T16:47:05;13.20;99.90
24176;DHT22;12324;48.146;11.502;2023-04-28T16:49:33;13.30;99.90
24176;DHT22;12324;48.146;11.502;2023-04-28T16:52:02;13.20;99.90
24176;DHT22;12324;48.146;11.502;2023-04-28T16:54:30;13.10;99.90
24176;DHT22;12324;48.146;11.502;2023-04-28T16:56:57;13.10;99.90
24176;DHT22;12324;48.146;11.502;2023-04-28T16:59:25;13.00;99.90
24176;DHT22;12324;48.146;11.502;2023-04-28T17:01:58;13.10;99.90
24176;DHT22;12324;48.146;11.502;2023-04-28T17:04:25;13.20;99.90
24176;DHT22;12324;48.146;11.502;2023-04-28T17:06:53;13.20;99.90
24176;DHT22;12324;48.146;11.502;2023-04-28T17:09:21;13.10;99.90
24176;DHT22;12324;48.146;11.502;2023-04-28T17:11:48;13.00;99.90
24176;DHT22;12324;48.146;11.502;2023-04-28T17:14:16;13.20;99.90
24176;DHT22;12324;48.146;11.502;2023-04-28T17:16:43;13.00;99.90
24176;DHT22;12324;48.146;11.502;2023-04-28T17:19:10;13.00;99.90
24176;DHT22;12324;48.146;11.502;2023-04-28T17:21:37;13.10;99.90
24176;DHT22;12324;48.146;11.502;2023-04-28T17:36:24;12.90;99.90
24176;DHT22;12324;48.146;11.502;2023-04-28T17:38:54;12.80;99.90
24176;DHT22;12324;48.146;11.502;2023-04-28T17:41:21;12.80;99.90
24176;DHT22;12324;48.146;11.502;2023-04-28T17:43:49;12.70;99.90
24176;DHT22;12324;48.146;11.502;2023-04-28T17:48:48;12.70;99.90
24176;DHT22;12324;48.146;11.502;2023-04-28T17:51:15;12.50;99.90
24176;DHT22;12324;48.146;11.502;2023-04-28T18:03:35;12.40;99.90
24176;DHT22;12324;48.146;11.502;2023-04-28T18:06:07;12.40;99.90
24176;DHT22;12324;48.146;11.502;2023-04-28T18:13:34;12.20;99.90
24176;DHT22;12324;48.146;11.502;2023-04-28T18:16:01;12.00;99.90
24176;DHT22;12324;48.146;11.502;2023-04-28T18:18:30;12.00;99.90
24176;DHT22;12324;48.146;11.502;2023-04-28T18:21:01;12.00;99.90
24176;DHT22;12324;48.146;11.502;2023-04-28T18:23:27;12.00;99.90
24176;DHT22;12324;48.146;11.502;2023-04-28T18:25:55;12.00;99.90
24176;DHT22;12324;48.146;11.502;2023-04-28T18:28:22;12.00;99.90
24176;DHT22;12324;48.146;11.502;2023-04-28T18:30:49;12.00;99.90
24176;DHT22;12324;48.146;11.502;2023-04-28T18:33:16;12.00;99.90
24176;DHT22;12324;48.146;11.502;2023-04-28T18:36:00;12.00;99.90
24176;DHT22;12324;48.146;11.502;2023-04-28T18:38:27;12.00;99.90
24176;DHT22;12324;48.146;11.502;2023-04-28T18:40:54;12.00;99.90
24176;DHT22;12324;48.146;11.502;2023-04-28T18:43:20;11.90;99.90
24176;DHT22;12324;48.146;11.502;2023-04-28T18:45:49;11.90;99.90
24176;DHT22;12324;48.146;11.502;2023-04-28T18:48:15;11.90;99.90
24176;DHT22;12324;48.146;11.502;2023-04-28T18:50:43;11.80;99.90
24176;DHT22;12324;48.146;11.502;2023-04-28T18:53:13;11.80;99.90
24176;DHT22;12324;48.146;11.502;2023-04-28T18:55:39;11.80;99.90
24176;DHT22;12324;48.146;11.502;2023-04-28T18:58:06;11.70;99.90
24176;DHT22;12324;48.146;11.502;2023-04-28T19:00:37;11.60;99.90
24176;DHT22;12324;48.146;11.502;2023-04-28T19:03:04;11.60;99.90
24176;DHT22;12324;48.146;11.502;2023-04-28T19:05:31;11.60;99.90
24176;DHT22;12324;48.146;11.502;2023-04-28T19:07:59;11.40;99.90
24176;DHT22;12324;48.146;11.502;2023-04-28T19:10:26;11.40;99.90
24176;DHT22;12324;48.146;11.502;2023-04-28T19:12:52;11.40;99.90
24176;DHT22;12324;48.146;11.502;2023-04-28T19:15:19;11.30;99.90
24176;DHT22;12324;48.146;11.502;2023-04-28T19:17:46;11.30;99.90
24176;DHT22;12324;48.146;11.502;2023-04-28T19:20:12;11.30;99.90
24176;DHT22;12324;48.146;11.502;2023-04-28T19:22:39;11.20;99.90
24176;DHT22;12324;48.146;11.502;2023-04-28T19:25:07;11.20;99.90
24176;DHT22;12324;48.146;11.502;2023-04-28T19:27:38;11.20;99.90
24176;DHT22;12324;48.146;11.502;2023-04-28T19:30:08;11.20;99.90
24176;DHT22;12324;48.146;11.502;2023-04-28T19:32:34;11.20;99.90
24176;DHT22;12324;48.146;11.502;2023-04-28T19:35:02;11.20;99.90
24176;DHT22;12324;48.146;11.502;2023-04-28T19:37:30;11.20;99.90
24176;DHT22;12324;48.146;11.502;2023-04-28T19:39:57;11.20;99.90
24176;DHT22;12324;48.146;11.502;2023-04-28T19:42:23;11.20;99.90
24176;DHT22;12324;48.146;11.502;2023-04-28T19:44:55;11.20;99.90
24176;DHT22;12324;48.146;11.502;2023-04-28T19:47:26;11.10;99.90
24176;DHT22;12324;48.146;11.502;2023-04-28T19:49:53;11.10;99.90
24176;DHT22;12324;48.146;11.502;2023-04-28T19:52:21;11.20;99.90
24176;DHT22;12324;48.146;11.502;2023-04-28T19:54:49;11.20;99.90
24176;DHT22;12324;48.146;11.502;2023-04-28T19:57:16;11.20;99.90
24176;DHT22;12324;48.146;11.502;2023-04-28T19:59:45;11.20;99.90
24176;DHT22;12324;48.146;11.502;2023-04-28T20:02:12;11.30;99.90
24176;DHT22;12324;48.146;11.502;2023-04-28T20:04:39;11.30;99.90
24176;DHT22;12324;48.146;11.502;2023-04-28T20:07:07;11.20;99.90
24176;DHT22;12324;48.146;11.502;2023-04-28T20:09:35;11.20;99.90
24176;DHT22;12324;48.146;11.502;2023-04-28T20:12:03;11.30;99.90
24176;DHT22;12324;48.146;11.502;2023-04-28T20:14:32;11.20;99.90
24176;DHT22;12324;48.146;11.502;2023-04-28T20:17:03;11.20;99.90
24176;DHT22;12324;48.146;11.502;2023-04-28T20:19:30;11.20;99.90
24176;DHT22;12324;48.146;11.502;2023-04-28T20:21:57;11.20;99.90
24176;DHT22;12324;48.146;11.502;2023-04-28T20:24:23;11.20;99.90
24176;DHT22;12324;48.146;11.502;2023-04-28T20:26:50;11.20;99.90
24176;DHT22;12324;48.146;11.502;2023-04-28T20:29:20;11.20;99.90
24176;DHT22;12324;48.146;11.502;2023-04-28T20:31:46;11.10;99.90
24176;DHT22;12324;48.146;11.502;2023-04-28T20:34:14;11.20;99.90
24176;DHT22;12324;48.146;11.502;2023-04-28T20:36:40;11.20;99.90
24176;DHT22;12324;48.146;11.502;2023-04-28T20:39:08;11.30;99.90
24176;DHT22;12324;48.146;11.502;2023-04-28T20:41:36;11.20;99.90
24176;DHT22;12324;48.146;11.502;2023-04-28T20:44:03;11.20;99.90
24176;DHT22;12324;48.146;11.502;2023-04-28T20:46:31;11.10;99.90
24176;DHT22;12324;48.146;11.502;2023-04-28T20:48:58;11.20;99.90
24176;DHT22;12324;48.146;11.502;2023-04-28T20:51:25;11.10;99.90
24176;DHT22;12324;48.146;11.502;2023-04-28T20:53:55;11.10;99.90
24176;DHT22;12324;48.146;11.502;2023-04-28T20:56:21;11.10;99.90
24176;DHT22;12324;48.146;11.502;2023-04-28T20:58:48;11.10;99.90
24176;DHT22;12324;48.146;11.502;2023-04-28T21:01:15;11.00;99.90
24176;DHT22;12324;48.146;11.502;2023-04-28T21:03:42;11.00;99.90
24176;DHT22;12324;48.146;11.502;2023-04-28T21:06:09;11.00;99.90
24176;DHT22;12324;48.146;11.502;2023-04-28T21:08:35;11.00;99.90
24176;DHT22;12324;48.146;11.502;2023-04-28T21:11:02;11.00;99.90
24176;DHT22;12324;48.146;11.502;2023-04-28T21:13:29;10.90;99.90
24176;DHT22;12324;48.146;11.502;2023-04-28T21:15:55;11.00;99.90
24176;DHT22;12324;48.146;11.502;2023-04-28T21:18:22;10.90;99.90
24176;DHT22;12324;48.146;11.502;2023-04-28T21:20:49;10.90;99.90
24176;DHT22;12324;48.146;11.502;2023-04-28T21:23:16;10.90;99.90